createdAt,value
2022-09-30T00:01:35.444Z,94609.97
2022-09-30T00:04:03.681Z,94610.34
2022-09-30T00:06:33.047Z,94609.59
2022-09-30T00:09:01.744Z,94613.44
2022-09-30T00:11:32.780Z,94613.88
2022-09-30T00:14:01.120Z,94613.66
2022-09-30T00:16:34.207Z,94615.28
2022-09-30T00:19:03.790Z,94622.56
2022-09-30T00:21:34.149Z,94626.59
2022-09-30T00:24:02.277Z,94628.66
2022-09-30T00:26:30.639Z,94630.06
2022-09-30T00:29:00.045Z,94629.88
2022-09-30T00:31:32.785Z,94630.88
2022-09-30T00:34:10.098Z,94642.81
2022-09-30T00:36:41.728Z,94633.50
2022-09-30T00:39:12.147Z,94635.53
2022-09-30T00:41:39.960Z,94633.50
2022-09-30T00:44:48.287Z,94640.41
2022-09-30T00:47:38.349Z,94636.97
2022-09-30T00:50:14.940Z,94641.38
2022-09-30T00:52:43.802Z,94636.72
2022-09-30T00:55:27.080Z,94639.56
2022-09-30T00:57:56.169Z,94637.13
2022-09-30T01:00:24.297Z,94635.53
2022-09-30T01:02:54.548Z,94632.66
2022-09-30T01:05:24.017Z,94639.97
2022-09-30T01:07:52.583Z,94644.00
2022-09-30T01:10:20.775Z,94644.38
2022-09-30T01:12:48.714Z,94653.91
2022-09-30T01:15:17.515Z,94645.19
2022-09-30T01:17:55.187Z,94647.25
2022-09-30T01:20:47.526Z,94644.00
2022-09-30T01:23:39.575Z,94646.84
2022-09-30T01:26:37.983Z,94648.25
2022-09-30T01:29:43.306Z,94663.06
2022-09-30T01:32:20.033Z,94662.22
2022-09-30T01:34:56.944Z,94667.91
2022-09-30T01:37:29.212Z,94683.69
2022-09-30T01:40:07.358Z,94689.38
2022-09-30T01:42:44.310Z,94693.00
2022-09-30T01:45:17.393Z,94686.56
2022-09-30T01:47:51.939Z,94684.53
2022-09-30T01:50:24.728Z,94695.47
2022-09-30T01:53:02.761Z,94693.84
2022-09-30T01:55:35.609Z,94695.66
2022-09-30T01:58:10.590Z,94702.34
2022-09-30T02:00:42.643Z,94690.19
2022-09-30T02:03:16.653Z,94689.38
2022-09-30T02:05:51.076Z,94693.44
2022-09-30T02:08:22.657Z,94698.28
2022-09-30T02:10:56.326Z,94696.69
2022-09-30T02:13:30.977Z,94699.13
2022-09-30T02:16:12.695Z,94695.47
2022-09-30T02:18:46.034Z,94693.44
2022-09-30T02:21:18.396Z,94696.50
2022-09-30T02:23:50.426Z,94692.84
2022-09-30T02:26:23.021Z,94689.63
2022-09-30T02:28:55.255Z,94694.69
2022-09-30T02:31:25.931Z,94694.69
2022-09-30T02:33:59.654Z,94697.31
2022-09-30T02:36:33.010Z,94692.06
2022-09-30T02:39:04.469Z,94690.44
2022-09-30T02:41:38.511Z,94691.81
2022-09-30T02:44:07.045Z,94698.34
2022-09-30T02:46:44.572Z,94699.94
2022-09-30T02:49:22.269Z,94696.69
2022-09-30T02:52:07.290Z,94702.78
2022-09-30T02:54:43.639Z,94702.41
2022-09-30T02:57:20.202Z,94702.41
2022-09-30T02:59:51.516Z,94706.44
2022-09-30T03:02:20.408Z,94714.16
2022-09-30T03:04:52.012Z,94721.03
2022-09-30T03:07:19.901Z,94729.53
2022-09-30T03:09:48.435Z,94731.56
2022-09-30T03:12:33.767Z,94740.88
2022-09-30T03:15:16.285Z,94737.25
2022-09-30T03:17:59.349Z,94738.47
2022-09-30T03:20:38.794Z,94734.00
2022-09-30T03:23:27.579Z,94733.81
2022-09-30T03:26:03.054Z,94736.44
2022-09-30T03:28:36.669Z,94736.88
2022-09-30T03:31:12.995Z,94741.72
2022-09-30T03:33:50.193Z,94746.59
2022-09-30T03:36:28.459Z,94743.94
2022-09-30T03:39:05.975Z,94740.09
2022-09-30T03:41:40.791Z,94740.50
2022-09-30T03:44:13.138Z,94744.13
2022-09-30T03:46:46.539Z,94749.00
2022-09-30T03:49:20.137Z,94753.44
2022-09-30T03:51:51.020Z,94745.34
2022-09-30T03:54:19.396Z,94742.94
2022-09-30T03:56:47.970Z,94747.81
2022-09-30T03:59:24.006Z,94753.06
2022-09-30T04:01:52.460Z,94753.84
2022-09-30T04:04:20.389Z,94763.97
2022-09-30T04:06:50.087Z,94761.94
2022-09-30T04:09:17.832Z,94764.78
2022-09-30T04:11:46.298Z,94769.44
2022-09-30T04:14:14.127Z,94767.44
2022-09-30T04:16:43.347Z,94773.28
2022-09-30T04:19:11.141Z,94773.94
2022-09-30T04:21:39.295Z,94779.59
2022-09-30T04:24:09.074Z,94775.75
2022-09-30T04:26:37.211Z,94774.75
2022-09-30T04:29:05.104Z,94773.75
2022-09-30T04:31:33.553Z,94767.03
2022-09-30T04:34:01.414Z,94773.31
2022-09-30T04:36:29.078Z,94777.38
2022-09-30T04:38:56.765Z,94775.56
2022-09-30T04:41:26.746Z,94775.38
2022-09-30T04:43:55.137Z,94786.31
2022-09-30T04:46:23.017Z,94781.84
2022-09-30T04:48:51.191Z,94781.84
2022-09-30T04:51:21.067Z,94776.16
2022-09-30T04:53:50.387Z,94782.88
2022-09-30T04:56:18.844Z,94785.50
2022-09-30T04:58:47.848Z,94774.75
2022-09-30T05:01:17.917Z,94770.91
2022-09-30T05:03:45.856Z,94781.25
2022-09-30T05:06:14.523Z,94787.94
2022-09-30T05:08:45.971Z,94779.81
2022-09-30T05:11:18.433Z,94783.09
2022-09-30T05:13:46.560Z,94782.28
2022-09-30T05:16:17.271Z,94793.22
2022-09-30T05:18:47.014Z,94803.94
2022-09-30T05:21:17.437Z,94809.03
2022-09-30T05:23:45.506Z,94808.81
2022-09-30T05:26:13.211Z,94814.31
2022-09-30T05:28:40.985Z,94817.13
2022-09-30T05:31:08.944Z,94819.38
2022-09-30T05:33:38.114Z,94824.44
2022-09-30T05:36:08.941Z,94830.31
2022-09-30T05:38:37.073Z,94839.03
2022-09-30T05:41:11.560Z,94833.41
2022-09-30T05:43:40.632Z,94833.41
2022-09-30T05:46:09.271Z,94829.34
2022-09-30T05:48:38.286Z,94841.72
2022-09-30T05:51:07.498Z,94836.84
2022-09-30T05:53:38.565Z,94833.00
2022-09-30T05:56:07.269Z,94830.56
2022-09-30T05:58:35.531Z,94837.25
2022-09-30T06:01:13.230Z,94848.81
2022-09-30T06:03:43.626Z,94856.78
2022-09-30T06:06:11.433Z,94861.44
2022-09-30T06:08:39.115Z,94867.91
2022-09-30T06:11:12.722Z,94865.91
2022-09-30T06:13:41.476Z,94869.56
2022-09-30T06:16:11.185Z,94863.47
2022-09-30T06:18:41.088Z,94869.78
2022-09-30T06:24:01.945Z,94878.31
2022-09-30T06:26:30.086Z,94876.88
2022-09-30T06:28:57.784Z,94890.25
2022-09-30T06:31:25.516Z,94893.50
2022-09-30T06:33:53.844Z,94895.13
2022-09-30T06:36:23.326Z,94898.00
2022-09-30T06:38:52.921Z,94882.97
2022-09-30T06:41:21.594Z,94889.47
2022-09-30T06:44:00.362Z,94896.38
2022-09-30T06:46:31.166Z,94901.25
2022-09-30T06:49:11.906Z,94906.53
2022-09-30T06:51:43.072Z,94917.06
2022-09-30T06:54:10.922Z,94901.66
2022-09-30T06:56:39.528Z,94906.50
2022-09-30T06:59:07.231Z,94906.91
2022-09-30T07:01:34.973Z,94912.19
2022-09-30T07:04:08.145Z,94906.09
2022-09-30T07:06:36.386Z,94912.00
2022-09-30T07:09:05.683Z,94920.31
2022-09-30T07:11:33.365Z,94915.63
2022-09-30T07:14:01.610Z,94915.63
2022-09-30T07:16:31.493Z,94917.66
2022-09-30T07:18:59.856Z,94924.34
2022-09-30T07:21:27.928Z,94926.78
2022-09-30T07:23:56.678Z,94932.88
2022-09-30T07:26:27.203Z,94925.56
2022-09-30T07:28:54.892Z,94931.03
2022-09-30T07:31:32.908Z,94938.75
2022-09-30T07:34:03.375Z,94937.50
2022-09-30T07:36:33.594Z,94948.06
2022-09-30T07:39:06.812Z,94942.75
2022-09-30T07:41:39.264Z,94939.72
2022-09-30T07:44:12.173Z,94939.50
2022-09-30T07:46:40.445Z,94940.69
2022-09-30T07:49:12.897Z,94942.91
2022-09-30T07:51:44.109Z,94943.56
2022-09-30T07:54:15.321Z,94946.59
2022-09-30T07:57:08.715Z,94949.81
2022-09-30T07:59:34.665Z,94954.28
2022-09-30T08:02:02.892Z,94950.41
2022-09-30T08:04:30.971Z,94950.16
2022-09-30T08:07:00.932Z,94950.16
2022-09-30T08:09:30.928Z,94965.56
2022-09-30T08:12:00.542Z,94972.47
2022-09-30T08:14:29.173Z,94959.84
2022-09-30T08:16:58.686Z,94960.28
2022-09-30T08:19:27.573Z,94973.31
2022-09-30T08:21:55.908Z,94982.84
2022-09-30T08:24:26.424Z,94976.97
2022-09-30T08:26:55.367Z,94978.78
2022-09-30T08:29:50.094Z,94989.53
2022-09-30T08:32:12.786Z,94986.72
2022-09-30T08:34:40.514Z,94978.56
2022-09-30T08:37:10.621Z,94979.28
2022-09-30T08:39:38.448Z,94978.47
2022-09-30T08:42:41.430Z,94983.72
2022-09-30T08:45:23.451Z,94991.19
2022-09-30T08:48:02.167Z,94982.22
2022-09-30T08:50:35.649Z,94986.50
2022-09-30T08:53:10.217Z,94989.81
2022-09-30T08:55:42.006Z,94985.72
2022-09-30T08:58:20.518Z,94982.09
2022-09-30T09:00:51.233Z,94984.53
2022-09-30T09:03:20.817Z,94994.69
2022-09-30T09:05:54.196Z,94994.69
2022-09-30T09:08:30.435Z,94999.16
2022-09-30T09:11:08.959Z,95010.53
2022-09-30T09:13:48.331Z,95010.28
2022-09-30T09:16:26.676Z,95017.19
2022-09-30T09:19:04.730Z,95021.03
2022-09-30T09:21:44.969Z,95025.13
2022-09-30T09:24:17.199Z,95020.25
2022-09-30T09:26:45.104Z,95018.22
2022-09-30T09:29:27.061Z,95018.22
2022-09-30T09:31:57.188Z,95023.88
2022-09-30T09:34:27.039Z,95029.16
2022-09-30T09:37:07.382Z,95023.78
2022-09-30T09:40:07.707Z,95019.72
2022-09-30T09:42:59.118Z,95021.28
2022-09-30T09:45:33.407Z,95016.81
2022-09-30T09:48:03.026Z,95022.47
2022-09-30T09:50:41.932Z,95019.25
2022-09-30T09:53:24.826Z,95016.28
2022-09-30T09:55:57.089Z,95021.88
2022-09-30T09:58:26.335Z,95044.97
2022-09-30T10:01:13.800Z,95035.22
2022-09-30T10:03:43.621Z,95042.63
2022-09-30T10:06:12.821Z,95047.06
2022-09-30T10:08:53.422Z,95059.63
2022-09-30T10:11:23.931Z,95058.72
2022-09-30T10:13:56.442Z,95061.09
2022-09-30T10:16:29.234Z,95073.44
2022-09-30T10:18:59.314Z,95073.84
2022-09-30T10:21:28.868Z,95076.25
2022-09-30T10:23:57.653Z,95076.41
2022-09-30T10:29:04.013Z,95074.94
2022-09-30T10:31:33.873Z,95073.06
2022-09-30T10:34:12.695Z,95071.44
2022-09-30T10:36:43.323Z,95082.44
2022-09-30T10:39:23.533Z,95087.75
2022-09-30T10:41:52.630Z,95085.88
2022-09-30T10:44:24.589Z,95092.50
2022-09-30T10:46:54.311Z,95095.09
2022-09-30T10:49:29.659Z,95084.75
2022-09-30T10:51:58.354Z,95083.97
2022-09-30T10:54:43.957Z,95092.47
2022-09-30T10:57:16.757Z,95084.19
2022-09-30T10:59:46.385Z,95079.59
2022-09-30T11:02:31.848Z,95075.56
2022-09-30T11:05:13.439Z,95080.13
2022-09-30T11:07:47.120Z,95076.00
2022-09-30T11:10:28.716Z,95076.81
2022-09-30T11:13:02.828Z,95068.44
2022-09-30T11:15:37.341Z,95079.31
2022-09-30T11:18:08.923Z,95079.06
2022-09-30T11:20:44.859Z,95070.97
2022-09-30T11:23:21.830Z,95077.69
2022-09-30T11:26:01.307Z,95072.34
2022-09-30T11:28:54.068Z,95074.56
2022-09-30T11:31:31.496Z,95077.69
2022-09-30T11:34:12.747Z,95085.31
2022-09-30T11:36:50.780Z,95085.09
2022-09-30T11:39:37.382Z,95086.22
2022-09-30T11:42:13.954Z,95083.44
2022-09-30T11:44:45.736Z,95078.63
2022-09-30T11:47:45.995Z,95078.09
2022-09-30T11:50:32.158Z,95086.88
2022-09-30T11:53:14.200Z,95081.69
2022-09-30T11:55:57.501Z,95079.34
2022-09-30T11:58:41.116Z,95083.50
2022-09-30T12:01:21.492Z,95077.94
2022-09-30T12:03:58.042Z,95078.94
2022-09-30T12:06:33.408Z,95079.72
2022-09-30T12:09:10.444Z,95076.84
2022-09-30T12:11:46.435Z,95074.56
2022-09-30T12:14:20.890Z,95071.97
2022-09-30T12:16:51.337Z,95070.56
2022-09-30T12:19:25.924Z,95074.66
2022-09-30T12:22:00.013Z,95075.31
2022-09-30T12:24:35.745Z,95071.84
2022-09-30T12:27:04.330Z,95075.84
2022-09-30T12:29:56.015Z,95076.47
2022-09-30T12:32:44.125Z,95070.34
2022-09-30T12:35:37.159Z,95072.25
2022-09-30T12:38:21.227Z,95070.88
2022-09-30T12:41:08.523Z,95066.63
2022-09-30T12:44:05.998Z,95065.81
2022-09-30T12:46:50.641Z,95068.84
2022-09-30T12:49:23.646Z,95071.59
2022-09-30T12:51:55.583Z,95070.78
2022-09-30T12:54:28.317Z,95067.88
2022-09-30T12:57:00.556Z,95068.69
2022-09-30T12:59:33.500Z,95064.66
2022-09-30T13:02:03.683Z,95076.84
2022-09-30T13:04:37.002Z,95071.41
2022-09-30T13:07:23.295Z,95071.75
2022-09-30T13:09:59.289Z,95073.22
2022-09-30T13:12:41.424Z,95062.88
2022-09-30T13:15:43.853Z,95067.06
2022-09-30T13:18:47.915Z,95071.03
2022-09-30T13:21:21.780Z,95070.59
2022-09-30T13:23:50.735Z,95071.03
2022-09-30T13:26:43.076Z,95069.69
2022-09-30T13:29:39.207Z,95074.53
2022-09-30T13:32:10.531Z,95077.94
2022-09-30T13:34:58.113Z,95081.19
2022-09-30T13:37:38.830Z,95077.91
2022-09-30T13:40:16.799Z,95075.69
2022-09-30T13:42:52.862Z,95068.06
2022-09-30T13:45:31.173Z,95061.63
2022-09-30T13:48:11.121Z,95064.97
2022-09-30T13:50:46.504Z,95069.91
2022-09-30T13:53:20.603Z,95064.28
2022-09-30T13:55:53.644Z,95063.78
2022-09-30T13:58:39.165Z,95065.91
2022-09-30T14:01:21.276Z,95072.72
2022-09-30T14:04:15.050Z,95072.56
2022-09-30T14:06:53.338Z,95072.38
2022-09-30T14:09:38.765Z,95078.22
2022-09-30T14:12:16.350Z,95078.72
2022-09-30T14:15:18.158Z,95080.34
2022-09-30T14:18:22.339Z,95079.34
2022-09-30T14:21:04.854Z,95066.47
2022-09-30T14:23:32.625Z,95065.78
2022-09-30T14:26:11.533Z,95076.31
2022-09-30T14:28:46.787Z,95078.88
2022-09-30T14:31:16.209Z,95071.69
2022-09-30T14:33:52.014Z,95075.97
2022-09-30T14:36:22.982Z,95076.69
2022-09-30T14:38:54.516Z,95072.97
2022-09-30T14:41:24.501Z,95075.31
2022-09-30T14:43:55.353Z,95078.44
2022-09-30T14:46:35.613Z,95085.97
2022-09-30T14:49:09.544Z,95074.75
2022-09-30T14:51:43.203Z,95082.72
2022-09-30T14:54:19.466Z,95086.22
2022-09-30T14:56:48.160Z,95069.91
2022-09-30T14:59:19.592Z,95082.28
2022-09-30T15:01:50.084Z,95085.50
2022-09-30T15:04:23.961Z,95088.28
2022-09-30T15:06:53.018Z,95087.25
2022-09-30T15:09:28.766Z,95082.16
2022-09-30T15:11:58.996Z,95086.13
2022-09-30T15:14:27.066Z,95091.06
2022-09-30T15:16:57.009Z,95096.19
2022-09-30T15:19:28.104Z,95104.06
2022-09-30T15:21:58.650Z,95108.94
2022-09-30T15:24:32.124Z,95113.09
2022-09-30T15:27:01.708Z,95114.03
2022-09-30T15:29:29.488Z,95113.66
2022-09-30T15:32:01.959Z,95113.09
2022-09-30T15:34:32.519Z,95118.13
2022-09-30T15:37:06.489Z,95126.72
2022-09-30T15:39:54.029Z,95128.75
2022-09-30T15:42:32.161Z,95127.31
2022-09-30T15:44:59.890Z,95128.84
2022-09-30T15:47:29.255Z,95130.44
2022-09-30T15:49:58.313Z,95134.25
2022-09-30T15:52:37.006Z,95127.59
2022-09-30T15:55:36.501Z,95136.69
2022-09-30T15:58:05.116Z,95147.28
2022-09-30T16:00:36.405Z,95143.19
2022-09-30T16:03:28.824Z,95141.75
2022-09-30T16:06:08.380Z,95143.69
2022-09-30T16:08:43.380Z,95156.38
2022-09-30T16:11:20.464Z,95145.25
2022-09-30T16:13:49.245Z,95146.78
2022-09-30T16:16:22.161Z,95144.00
2022-09-30T16:18:52.208Z,95156.16
2022-09-30T16:21:43.799Z,95164.94
2022-09-30T16:24:47.084Z,95162.38
2022-09-30T16:27:25.975Z,95156.97
2022-09-30T16:29:53.751Z,95164.88
2022-09-30T16:32:21.607Z,95162.38
2022-09-30T16:34:49.706Z,95166.97
2022-09-30T16:37:21.440Z,95156.25
2022-09-30T16:39:50.215Z,95164.00
2022-09-30T16:42:19.314Z,95165.03
2022-09-30T16:44:47.072Z,95168.84
2022-09-30T16:47:16.676Z,95170.94
2022-09-30T16:49:46.437Z,95169.41
2022-09-30T16:52:14.951Z,95169.00
2022-09-30T16:54:44.212Z,95167.78
2022-09-30T16:57:14.650Z,95163.91
2022-09-30T16:59:43.467Z,95164.50
2022-09-30T17:02:15.713Z,95162.22
2022-09-30T17:04:45.363Z,95166.41
2022-09-30T17:07:14.908Z,95171.41
2022-09-30T17:09:45.345Z,95175.56
2022-09-30T17:12:13.217Z,95169.91
2022-09-30T17:14:43.678Z,95170.78
2022-09-30T17:17:13.751Z,95177.19
2022-09-30T17:19:42.018Z,95184.00
2022-09-30T17:22:09.698Z,95190.56
2022-09-30T17:24:37.344Z,95193.50
2022-09-30T17:27:07.753Z,95189.84
2022-09-30T17:29:41.932Z,95200.13
2022-09-30T17:32:10.408Z,95193.03
2022-09-30T17:34:38.114Z,95188.81
2022-09-30T17:39:39.234Z,95207.16
2022-09-30T17:42:30.289Z,95213.91
2022-09-30T17:44:58.445Z,95215.81
2022-09-30T17:47:26.721Z,95211.97
2022-09-30T17:49:55.058Z,95222.84
2022-09-30T17:52:23.731Z,95221.03
2022-09-30T17:54:52.702Z,95224.94
2022-09-30T17:57:22.175Z,95229.25
2022-09-30T17:59:50.142Z,95230.47
2022-09-30T18:02:18.084Z,95234.38
2022-09-30T18:04:46.515Z,95231.16
2022-09-30T18:07:14.220Z,95225.06
2022-09-30T18:09:42.325Z,95225.69
2022-09-30T18:12:09.998Z,95213.72
2022-09-30T18:14:39.813Z,95229.38
2022-09-30T18:17:07.697Z,95232.88
2022-09-30T18:19:38.322Z,95237.38
2022-09-30T18:22:06.000Z,95234.13
2022-09-30T18:24:48.349Z,95229.69
2022-09-30T18:27:16.142Z,95234.56
2022-09-30T18:29:45.519Z,95233.97
2022-09-30T18:32:13.371Z,95234.56
2022-09-30T18:34:41.877Z,95243.72
2022-09-30T18:37:10.315Z,95237.19
2022-09-30T18:39:38.409Z,95245.53
2022-09-30T18:42:06.491Z,95246.75
2022-09-30T18:44:37.799Z,95253.81
2022-09-30T18:47:07.475Z,95260.09
2022-09-30T18:49:35.448Z,95263.28
2022-09-30T18:52:03.216Z,95267.88
2022-09-30T18:54:31.088Z,95268.25
2022-09-30T18:57:00.011Z,95260.91
2022-09-30T18:59:27.738Z,95263.09
2022-09-30T19:01:58.221Z,95254.34
2022-09-30T19:04:27.746Z,95253.53
2022-09-30T19:06:55.402Z,95270.00
2022-09-30T19:09:26.361Z,95263.44
2022-09-30T19:11:55.572Z,95265.88
2022-09-30T19:14:24.292Z,95260.97
2022-09-30T19:16:52.278Z,95259.75
2022-09-30T19:19:22.775Z,95258.13
2022-09-30T19:21:52.096Z,95261.75
2022-09-30T19:24:24.049Z,95248.31
2022-09-30T19:26:54.405Z,95254.38
2022-09-30T19:29:23.833Z,95249.09
2022-09-30T19:31:51.684Z,95250.31
2022-09-30T19:34:31.002Z,95240.97
2022-09-30T19:37:01.038Z,95245.41
2022-09-30T19:39:41.009Z,95242.16
2022-09-30T19:42:15.018Z,95240.16
2022-09-30T19:44:42.917Z,95239.69
2022-09-30T19:47:11.092Z,95238.47
2022-09-30T19:49:38.854Z,95229.94
2022-09-30T19:52:18.523Z,95237.25
2022-09-30T19:54:48.347Z,95228.69
2022-09-30T19:57:16.060Z,95225.44
2022-09-30T19:59:44.026Z,95218.91
2022-09-30T20:02:12.759Z,95233.88
2022-09-30T20:04:44.039Z,95234.69
2022-09-30T20:07:16.105Z,95235.75
2022-09-30T20:09:43.820Z,95247.44
2022-09-30T20:12:11.762Z,95248.59
2022-09-30T20:14:57.549Z,95252.72
2022-09-30T20:17:25.223Z,95253.47
2022-09-30T20:20:07.095Z,95258.91
2022-09-30T20:22:36.153Z,95256.19
2022-09-30T20:25:04.460Z,95257.53
2022-09-30T20:27:32.896Z,95257.09
2022-09-30T20:30:00.739Z,95263.50
2022-09-30T20:32:30.692Z,95265.31
2022-09-30T20:34:59.041Z,95274.28
2022-09-30T20:37:26.762Z,95276.47
2022-09-30T20:39:55.830Z,95268.97
2022-09-30T20:42:25.519Z,95285.91
2022-09-30T20:44:53.173Z,95279.56
2022-09-30T20:47:20.829Z,95283.13
2022-09-30T20:49:48.495Z,95282.50
2022-09-30T20:52:16.198Z,95285.03
2022-09-30T20:54:43.843Z,95272.41
2022-09-30T20:57:13.511Z,95269.88
2022-09-30T20:59:41.146Z,95266.31
2022-09-30T21:02:10.963Z,95265.22
2022-09-30T21:04:38.755Z,95263.66
2022-09-30T21:07:07.194Z,95256.47
2022-09-30T21:09:35.643Z,95255.72
2022-09-30T21:12:03.430Z,95263.88
2022-09-30T21:14:32.423Z,95258.47
2022-09-30T21:17:00.435Z,95256.34
2022-09-30T21:19:28.541Z,95257.16
2022-09-30T21:21:56.803Z,95254.81
2022-09-30T21:24:25.833Z,95246.91
2022-09-30T21:26:54.653Z,95248.53
2022-09-30T21:29:23.718Z,95247.53
2022-09-30T21:31:52.787Z,95249.16
2022-09-30T21:34:20.477Z,95239.41
2022-09-30T21:36:49.194Z,95236.16
2022-09-30T21:39:16.851Z,95228.53
2022-09-30T21:41:44.702Z,95239.91
2022-09-30T21:44:12.378Z,95233.91
2022-09-30T21:46:44.745Z,95232.91
2022-09-30T21:49:18.986Z,95231.03
2022-09-30T21:51:46.707Z,95237.06
2022-09-30T21:54:14.773Z,95236.78
2022-09-30T21:56:43.638Z,95248.56
2022-09-30T21:59:11.972Z,95249.34
2022-09-30T22:01:39.775Z,95255.50
2022-09-30T22:04:08.167Z,95271.22
2022-09-30T22:06:37.225Z,95265.59
2022-09-30T22:09:05.216Z,95267.50
2022-09-30T22:11:33.398Z,95281.94
2022-09-30T22:14:01.653Z,95290.72
2022-09-30T22:16:34.696Z,95294.72
2022-09-30T22:19:04.721Z,95302.00
2022-09-30T22:21:34.513Z,95297.44
2022-09-30T22:24:06.233Z,95299.88
2022-09-30T22:26:34.220Z,95312.06
2022-09-30T22:29:05.321Z,95326.09
2022-09-30T22:31:34.226Z,95319.19
2022-09-30T22:34:21.314Z,95336.72
2022-09-30T22:37:06.565Z,95334.72
2022-09-30T22:39:36.033Z,95335.59
2022-09-30T22:42:04.765Z,95323.72
2022-09-30T22:44:34.577Z,95327.72
2022-09-30T22:47:02.840Z,95321.97
2022-09-30T22:49:32.019Z,95325.09
2022-09-30T22:52:00.955Z,95327.91
2022-09-30T22:54:29.237Z,95329.41
2022-09-30T22:56:59.570Z,95330.50
2022-09-30T22:59:28.366Z,95339.84
2022-09-30T23:01:56.416Z,95343.94
2022-09-30T23:04:26.684Z,95339.97
2022-09-30T23:06:56.334Z,95338.53
2022-09-30T23:09:24.133Z,95345.44
2022-09-30T23:11:53.595Z,95352.50
2022-09-30T23:14:23.020Z,95361.13
2022-09-30T23:16:51.425Z,95354.16
2022-09-30T23:19:20.109Z,95351.88
2022-09-30T23:21:48.339Z,95358.84
2022-09-30T23:24:16.712Z,95361.78
2022-09-30T23:26:44.461Z,95356.69
2022-09-30T23:29:14.438Z,95356.50
2022-09-30T23:32:23.022Z,95351.44
2022-09-30T23:34:52.346Z,95356.59
2022-09-30T23:37:20.053Z,95354.44
2022-09-30T23:39:48.319Z,95347.34
2022-09-30T23:42:16.386Z,95351.06
2022-09-30T23:44:44.318Z,95347.09
2022-09-30T23:47:21.522Z,95349.97
2022-09-30T23:49:50.419Z,95351.19
2022-09-30T23:52:19.719Z,95355.34
2022-09-30T23:54:47.814Z,95360.88
2022-09-30T23:57:15.528Z,95361.16
2022-09-30T23:59:43.198Z,95355.69
